Mt Bomar Mars — 9HCM9 — position and weather

sailwx.info

Track history (hours):
 
Tides and Currents Weather Stations Pressure Air Temp Water Temp Dewpoint Dewpoint Depression Visibility Wind Speed Wind Dir Waves Ship Positions

Mt Bomar Mars

Last reported at 2014-Aug-24 22:11 UTC. Time now 2014-Aug-27 13:11 UTC.
Position N 49°35' W 000°19'.

Length 107 m; draft 6.9 m.

Type: Ship. MMSI: 256784000.

Date/timePositionNaut miles runAvg speedWind from/ knotsBaromVisibWave heightAir tempDewpointWater temp
2014-Aug-24 22:11N 49°35' W 000°19'711.8
2014-Aug-24 21:33N 49°32' W 000°08'1111.1
2014-Aug-24 20:33N 49°28' E 000°08'4 4.1
2014-Aug-24 19:33N 49°28' E 000°14'0 0.0
2014-Aug-24 18:31N 49°28' E 000°14'0 0.0
2014-Aug-24 17:31N 49°28' E 000°14'0 0.0
2014-Aug-24 16:31N 49°28' E 000°14'0 0.0
2014-Aug-24 15:31N 49°28' E 000°14'0 0.0
2014-Aug-24 14:31N 49°28' E 000°14'0 0.0
2014-Aug-24 13:31N 49°28' E 000°14'0 0.0
2014-Aug-24 12:31N 49°28' E 000°14'0 0.0
2014-Aug-24 11:31N 49°28' E 000°14'0 0.0
2014-Aug-24 10:22N 49°28' E 000°14'0 0.0
2014-Aug-24 09:28N 49°28' E 000°14'0 0.0
2014-Aug-24 08:31N 49°28' E 000°14'0 0.0
2014-Aug-24 07:31N 49°28' E 000°14'0 0.0
2014-Aug-24 06:31N 49°28' E 000°14'0 0.0
2014-Aug-24 05:13N 49°28' E 000°14'0 0.0
2014-Aug-24 04:31N 49°28' E 000°14'0 0.0
2014-Aug-24 03:31N 49°28' E 000°14'0 0.0
2014-Aug-24 02:25N 49°28' E 000°14'0 0.0
2014-Aug-24 01:31N 49°28' E 000°14'0 0.0
2014-Aug-23 23:31N 49°28' E 000°14'0 0.0
2014-Aug-23 22:31N 49°28' E 000°14'0 0.0
2014-Aug-23 21:25N 49°28' E 000°14'0 0.0
2014-Aug-23 20:25N 49°28' E 000°14'0 0.0
2014-Aug-23 19:34N 49°28' E 000°14'3 0.1
2014-Aug-22 04:32N 49°26' E 000°17'1212.2
2014-Aug-22 03:34N 49°28' W 000°01'4 3.9
2014-Aug-22 02:33N 49°29' W 000°06'3 2.7
2014-Aug-22 01:33N 49°30' W 000°10'68 9.7
2014-Aug-21 18:34N 50°34' E 000°26'11 9.9
2014-Aug-21 17:27N 50°40' E 000°40'4411.3
2014-Aug-21 13:31N 51°08' E 001°35'1010.6
2014-Aug-21 12:33N 51°15' E 001°47'1010.3
2014-Aug-21 11:33N 51°23' E 001°56'10 9.8
2014-Aug-21 10:32N 51°23' E 002°12'10 9.9
2014-Aug-21 09:33N 51°23' E 002°27'1110.3
2014-Aug-21 08:31N 51°23' E 002°44'9 9.7
2014-Aug-21 07:33N 51°24' E 002°59'1410.8
2014-Aug-21 06:17N 51°25' E 003°21'811.3
2014-Aug-21 05:33N 51°26' E 003°34'9 8.6
2014-Aug-21 04:33N 51°22' E 003°46'3 2.7
2014-Aug-21 03:33N 51°20' E 003°49'3 0.8
2014-Aug-20 23:29N 51°17' E 003°51'0 0.0
2014-Aug-20 21:08N 51°17' E 003°51'0 0.0
2014-Aug-20 18:20N 51°17' E 003°51'0 0.0
2014-Aug-20 17:32N 51°17' E 003°51'0 0.0
2014-Aug-20 16:17N 51°17' E 003°51'0 0.0
2014-Aug-20 11:23N 51°17' E 003°51'0 0.0
2014-Aug-20 10:29N 51°17' E 003°51'0 0.0
2014-Aug-20 09:26N 51°17' E 003°51'0 0.0
2014-Aug-20 05:32N 51°17' E 003°51'0 0.0
2014-Aug-20 04:14N 51°17' E 003°51'0 0.0
2014-Aug-20 03:32N 51°17' E 003°51'0 0.0
2014-Aug-20 01:23N 51°17' E 003°51'0 0.0
2014-Aug-19 05:17N 51°17' E 003°51'0 0.0
2014-Aug-19 03:26N 51°17' E 003°51'0 0.0
2014-Aug-19 02:29N 51°17' E 003°51'0 0.0
2014-Aug-19 01:29N 51°17' E 003°51'0 0.0
2014-Aug-18 20:14N 51°17' E 003°51'0 0.0
2014-Aug-18 18:33N 51°17' E 003°51'3 3.1
2014-Aug-18 17:29N 51°20' E 003°49'6 5.9
2014-Aug-18 16:33N 51°24' E 003°42'6 5.6
2014-Aug-18 15:33N 51°26' E 003°34'20 8.9
2014-Aug-18 13:20N 51°42' E 003°16'5 6.3
2014-Aug-18 12:33N 51°47' E 003°20'1 0.1
2014-Aug-18 01:27N 51°47' E 003°21'0 0.0
2014-Aug-18 00:27N 51°47' E 003°21'26 0.6
2014-Aug-16 04:13N 52°03' E 003°54'6 9.4
2014-Aug-16 03:33N 51°60' E 004°03'1211.8
2014-Aug-16 02:33N 51°53' E 004°19'0 0.2
2014-Aug-16 01:28N 51°53' E 004°18'0 0.0
2014-Aug-16 00:13N 51°53' E 004°18'0 0.0
2014-Aug-15 23:28N 51°53' E 004°18'0 0.0
2014-Aug-14 22:33N 51°53' E 004°18'  
Track history (hours):
 
Tides and Currents Weather Stations Pressure Air Temp Water Temp Dewpoint Dewpoint Depression Visibility Wind Speed Wind Dir Waves Ship Positions

Mt Bomar Mars

Last reported at 2014-Aug-24 22:11 UTC. Time now 2014-Aug-27 13:12 UTC.
Position N 49°35' W 000°19'.

Length 107 m; draft 6.9 m.

Type: Ship. MMSI: 256784000.

Date/timePositionNaut miles runAvg speedWind from/ knotsBaromVisibWave heightAir tempDewpointWater temp
2014-Aug-24 22:11N 49°35' W 000°19'711.8
2014-Aug-24 21:33N 49°32' W 000°08'1111.1
2014-Aug-24 20:33N 49°28' E 000°08'4 4.1
2014-Aug-24 19:33N 49°28' E 000°14'0 0.0
2014-Aug-24 18:31N 49°28' E 000°14'0 0.0
2014-Aug-24 17:31N 49°28' E 000°14'0 0.0
2014-Aug-24 16:31N 49°28' E 000°14'0 0.0
2014-Aug-24 15:31N 49°28' E 000°14'0 0.0
2014-Aug-24 14:31N 49°28' E 000°14'0 0.0
2014-Aug-24 13:31N 49°28' E 000°14'0 0.0
2014-Aug-24 12:31N 49°28' E 000°14'0 0.0
2014-Aug-24 11:31N 49°28' E 000°14'0 0.0
2014-Aug-24 10:22N 49°28' E 000°14'0 0.0
2014-Aug-24 09:28N 49°28' E 000°14'0 0.0
2014-Aug-24 08:31N 49°28' E 000°14'0 0.0
2014-Aug-24 07:31N 49°28' E 000°14'0 0.0
2014-Aug-24 06:31N 49°28' E 000°14'0 0.0
2014-Aug-24 05:13N 49°28' E 000°14'0 0.0
2014-Aug-24 04:31N 49°28' E 000°14'0 0.0
2014-Aug-24 03:31N 49°28' E 000°14'0 0.0
2014-Aug-24 02:25N 49°28' E 000°14'0 0.0
2014-Aug-24 01:31N 49°28' E 000°14'0 0.0
2014-Aug-23 23:31N 49°28' E 000°14'0 0.0
2014-Aug-23 22:31N 49°28' E 000°14'0 0.0
2014-Aug-23 21:25N 49°28' E 000°14'0 0.0
2014-Aug-23 20:25N 49°28' E 000°14'0 0.0
2014-Aug-23 19:34N 49°28' E 000°14'3 0.1
2014-Aug-22 04:32N 49°26' E 000°17'1212.2
2014-Aug-22 03:34N 49°28' W 000°01'4 3.9
2014-Aug-22 02:33N 49°29' W 000°06'3 2.7
2014-Aug-22 01:33N 49°30' W 000°10'68 9.7
2014-Aug-21 18:34N 50°34' E 000°26'11 9.9
2014-Aug-21 17:27N 50°40' E 000°40'4411.3
2014-Aug-21 13:31N 51°08' E 001°35'1010.6
2014-Aug-21 12:33N 51°15' E 001°47'1010.3
2014-Aug-21 11:33N 51°23' E 001°56'10 9.8
2014-Aug-21 10:32N 51°23' E 002°12'10 9.9
2014-Aug-21 09:33N 51°23' E 002°27'1110.3
2014-Aug-21 08:31N 51°23' E 002°44'9 9.7
2014-Aug-21 07:33N 51°24' E 002°59'1410.8
2014-Aug-21 06:17N 51°25' E 003°21'811.3
2014-Aug-21 05:33N 51°26' E 003°34'9 8.6
2014-Aug-21 04:33N 51°22' E 003°46'3 2.7
2014-Aug-21 03:33N 51°20' E 003°49'3 0.8
2014-Aug-20 23:29N 51°17' E 003°51'0 0.0
2014-Aug-20 21:08N 51°17' E 003°51'0 0.0
2014-Aug-20 18:20N 51°17' E 003°51'0 0.0
2014-Aug-20 17:32N 51°17' E 003°51'0 0.0
2014-Aug-20 16:17N 51°17' E 003°51'0 0.0
2014-Aug-20 11:23N 51°17' E 003°51'0 0.0
2014-Aug-20 10:29N 51°17' E 003°51'0 0.0
2014-Aug-20 09:26N 51°17' E 003°51'0 0.0
2014-Aug-20 05:32N 51°17' E 003°51'0 0.0
2014-Aug-20 04:14N 51°17' E 003°51'0 0.0
2014-Aug-20 03:32N 51°17' E 003°51'0 0.0
2014-Aug-20 01:23N 51°17' E 003°51'0 0.0
2014-Aug-19 05:17N 51°17' E 003°51'0 0.0
2014-Aug-19 03:26N 51°17' E 003°51'0 0.0
2014-Aug-19 02:29N 51°17' E 003°51'0 0.0
2014-Aug-19 01:29N 51°17' E 003°51'0 0.0
2014-Aug-18 20:14N 51°17' E 003°51'0 0.0
2014-Aug-18 18:33N 51°17' E 003°51'3 3.1
2014-Aug-18 17:29N 51°20' E 003°49'6 5.9
2014-Aug-18 16:33N 51°24' E 003°42'6 5.6
2014-Aug-18 15:33N 51°26' E 003°34'20 8.9
2014-Aug-18 13:20N 51°42' E 003°16'5 6.3
2014-Aug-18 12:33N 51°47' E 003°20'1 0.1
2014-Aug-18 01:27N 51°47' E 003°21'0 0.0
2014-Aug-18 00:27N 51°47' E 003°21'26 0.6
2014-Aug-16 04:13N 52°03' E 003°54'6 9.4
2014-Aug-16 03:33N 51°60' E 004°03'1211.8
2014-Aug-16 02:33N 51°53' E 004°19'0 0.2
2014-Aug-16 01:28N 51°53' E 004°18'0 0.0
2014-Aug-16 00:13N 51°53' E 004°18'0 0.0
2014-Aug-15 23:28N 51°53' E 004°18'0 0.0
2014-Aug-14 22:33N 51°53' E 004°18'  

Dump ship's entire track history